Time;durP1;ratioP1;P1;durP2;ratioP2;P2;SDS_P1;SDS_P2;PMS_P1;PMS_P2;Temp;Humidity;BMP_temperature;BMP_pressure;BME280_temperature;BME280_humidity;BME280_pressure;Samples;Min_cycle;Max_cycle;Signal;HPM_P1;HPM_P2
2022/06/20 00:00:09;;;;;;;8.82;2.67;;;;;;;;;;5000533;28;20171;-69
2022/06/20 00:02:40;;;;;;;10.77;2.10;;;;;;;;;;4996213;28;20674;-69
2022/06/20 00:05:05;;;;;;;8.23;2.17;;;;;;;;;;4998212;28;20217;-69
2022/06/20 00:07:31;;;;;;;6.97;2.15;;;;;;;;;;4998068;28;20194;-68
2022/06/20 00:09:56;;;;;;;9.73;2.28;;;;;;;;;;4997776;28;20641;-68
2022/06/20 00:12:25;;;;;;;7.78;2.50;;;;;;;;;;4999389;28;20651;-68
2022/06/20 00:14:54;;;;;;;10.98;3.20;;;;;;;;;;4995195;28;20194;-68
2022/06/20 00:17:20;;;;;;;10.27;2.40;;;;;;;;;;4996331;28;20191;-68
2022/06/20 00:19:46;;;;;;;8.13;2.20;;;;;;;;;;4998189;28;20186;-68
2022/06/20 00:22:11;;;;;;;8.65;2.53;;;;;;;;;;4999375;28;20198;-68
2022/06/20 00:24:37;;;;;;;10.20;3.55;;;;;;;;;;4998443;28;20682;-68
2022/06/20 00:27:06;;;;;;;9.27;2.70;;;;;;;;;;4997650;28;20512;-68
2022/06/20 00:29:36;;;;;;;9.85;2.55;;;;;;;;;;4998811;28;20697;-68
2022/06/20 00:32:04;;;;;;;11.73;3.42;;;;;;;;;;4995729;28;20554;-67
2022/06/20 00:34:29;;;;;;;7.93;2.60;;;;;;;;;;4998564;28;20569;-68
2022/06/20 00:36:55;;;;;;;10.15;2.88;;;;;;;;;;4997701;28;20183;-68
2022/06/20 00:39:21;;;;;;;13.68;2.70;;;;;;;;;;4998940;28;20305;-68
2022/06/20 00:41:48;;;;;;;7.78;2.72;;;;;;;;;;4999484;28;20368;-68
2022/06/20 00:44:16;;;;;;;10.10;2.80;;;;;;;;;;4998409;28;20190;-68
2022/06/20 00:46:46;;;;;;;11.32;2.60;;;;;;;;;;4996796;28;20204;-69
2022/06/20 00:49:22;;;;;;;11.50;2.83;;;;;;;;;;4999745;28;20190;-69
2022/06/20 00:51:52;;;;;;;7.60;2.20;;;;;;;;;;4997073;28;20190;-69
2022/06/20 00:54:40;;;;;;;13.02;2.53;;;;;;;;;;4995528;28;20256;-68
2022/06/20 00:57:25;;;;;;;8.77;2.70;;;;;;;;;;4996637;28;20395;-68
2022/06/20 00:59:57;;;;;;;13.35;2.63;;;;;;;;;;4996723;28;20642;-68
2022/06/20 01:02:31;;;;;;;12.20;2.78;;;;;;;;;;4996917;28;20250;-68
2022/06/20 01:05:27;;;;;;;11.45;2.75;;;;;;;;;;5000544;28;20282;-68
2022/06/20 01:08:01;;;;;;;6.85;2.47;;;;;;;;;;4997975;28;20550;-68
2022/06/20 01:10:32;;;;;;;11.48;2.53;;;;;;;;;;4997652;28;20206;-70
2022/06/20 01:13:02;;;;;;;9.20;2.35;;;;;;;;;;4998497;28;20248;-68
2022/06/20 01:15:35;;;;;;;7.20;2.47;;;;;;;;;;4998677;28;20612;-68
2022/06/20 01:18:02;;;;;;;8.65;2.75;;;;;;;;;;4998552;28;20614;-68
2022/06/20 01:20:31;;;;;;;8.40;2.90;;;;;;;;;;5000331;28;20570;-67
2022/06/20 01:23:12;;;;;;;11.13;2.40;;;;;;;;;;4998314;28;20311;-68
2022/06/20 01:26:01;;;;;;;9.20;2.70;;;;;;;;;;4997119;28;20194;-68
2022/06/20 01:28:31;;;;;;;11.20;2.58;;;;;;;;;;5000221;28;20296;-68
2022/06/20 01:30:59;;;;;;;8.23;2.30;;;;;;;;;;5001920;28;20206;-69
2022/06/20 01:33:25;;;;;;;7.80;2.42;;;;;;;;;;5000972;28;20217;-69
2022/06/20 01:38:37;;;;;;;5.13;2.40;;;;;;;;;;5002509;28;20245;-69
2022/06/20 01:43:47;;;;;;;7.80;2.50;;;;;;;;;;5002862;28;20181;-69
2022/06/20 01:46:13;;;;;;;8.15;2.70;;;;;;;;;;5002561;28;21639;-69
2022/06/20 01:48:45;;;;;;;10.32;2.45;;;;;;;;;;5002497;28;20191;-69
2022/06/20 01:51:16;;;;;;;12.63;2.80;;;;;;;;;;5002603;28;20198;-70
2022/06/20 01:53:43;;;;;;;7.75;2.47;;;;;;;;;;5001282;28;20186;-68
2022/06/20 01:56:10;;;;;;;11.52;2.88;;;;;;;;;;5000644;28;20282;-69
2022/06/20 01:58:38;;;;;;;8.32;3.22;;;;;;;;;;5001303;28;20935;-69
2022/06/20 02:01:04;;;;;;;10.23;3.65;;;;;;;;;;5002380;28;20186;-69
2022/06/20 02:03:34;;;;;;;11.88;3.03;;;;;;;;;;4999892;28;20194;-70
2022/06/20 02:06:01;;;;;;;8.45;3.08;;;;;;;;;;5001477;28;20190;-70
2022/06/20 02:08:27;;;;;;;12.93;3.25;;;;;;;;;;5000323;28;20190;-71
2022/06/20 02:11:06;;;;;;;12.23;2.75;;;;;;;;;;5001601;28;20198;-70
2022/06/20 02:13:37;;;;;;;13.05;3.20;;;;;;;;;;5002836;28;20765;-69
2022/06/20 02:16:06;;;;;;;6.30;2.50;;;;;;;;;;5000035;28;20277;-69
2022/06/20 02:18:35;;;;;;;8.95;2.92;;;;;;;;;;5003103;28;20183;-70
2022/06/20 02:21:03;;;;;;;8.75;2.20;;;;;;;;;;4983701;28;20282;-70
2022/06/20 02:23:32;;;;;;;11.25;2.72;;;;;;;;;;5000748;28;20194;-70
2022/06/20 02:26:00;;;;;;;12.32;2.45;;;;;;;;;;4998993;28;20197;-70
2022/06/20 02:28:40;;;;;;;9.50;2.60;;;;;;;;;;4999156;28;20529;-69
2022/06/20 02:31:08;;;;;;;8.13;2.50;;;;;;;;;;5014525;28;20239;-70
2022/06/20 02:33:34;;;;;;;5.78;2.42;;;;;;;;;;4997561;28;20183;-69
2022/06/20 02:36:02;;;;;;;14.48;3.13;;;;;;;;;;4999858;28;20221;-69
2022/06/20 02:38:28;;;;;;;12.32;2.85;;;;;;;;;;5000738;28;20179;-69
2022/06/20 02:40:55;;;;;;;7.63;2.33;;;;;;;;;;5001404;28;20741;-70
2022/06/20 02:43:25;;;;;;;9.38;2.47;;;;;;;;;;5000037;28;20195;-69
2022/06/20 02:45:53;;;;;;;8.48;2.45;;;;;;;;;;5032949;28;20187;-69
2022/06/20 02:48:21;;;;;;;5.75;2.03;;;;;;;;;;5000161;28;20195;-69
2022/06/20 02:50:53;;;;;;;10.25;2.90;;;;;;;;;;5001232;28;20224;-70
2022/06/20 02:53:30;;;;;;;5.32;2.25;;;;;;;;;;5002022;28;20200;-70
2022/06/20 02:55:56;;;;;;;8.93;2.20;;;;;;;;;;5000600;28;20202;-70
2022/06/20 02:58:26;;;;;;;10.82;2.45;;;;;;;;;;5000851;28;20222;-70
2022/06/20 03:01:29;;;;;;;9.05;2.20;;;;;;;;;;4999262;28;20205;-70
2022/06/20 03:03:58;;;;;;;10.57;2.60;;;;;;;;;;4999265;28;20660;-71
2022/06/20 03:06:33;;;;;;;10.65;2.38;;;;;;;;;;5001198;28;20679;-70
2022/06/20 03:09:00;;;;;;;11.07;3.22;;;;;;;;;;5000186;28;20205;-70
2022/06/20 03:11:28;;;;;;;6.88;2.35;;;;;;;;;;5000103;28;20247;-70
2022/06/20 03:13:55;;;;;;;9.63;2.60;;;;;;;;;;5000667;28;20621;-70
2022/06/20 03:16:21;;;;;;;8.10;2.45;;;;;;;;;;5000558;28;20229;-70
2022/06/20 03:18:49;;;;;;;9.80;2.65;;;;;;;;;;4999408;28;20194;-70
2022/06/20 03:21:20;;;;;;;6.55;2.50;;;;;;;;;;4999485;28;20748;-70
2022/06/20 03:23:45;;;;;;;9.88;2.53;;;;;;;;;;5000348;28;20191;-70
2022/06/20 03:26:25;;;;;;;6.20;2.28;;;;;;;;;;5001188;28;20615;-70
2022/06/20 03:28:51;;;;;;;9.00;2.70;;;;;;;;;;5001248;28;20186;-70
2022/06/20 03:31:17;;;;;;;9.40;2.88;;;;;;;;;;4999762;28;20297;-69
2022/06/20 03:33:42;;;;;;;5.68;2.08;;;;;;;;;;5000224;28;20785;-69
2022/06/20 03:36:19;;;;;;;6.60;2.63;;;;;;;;;;5000478;28;20201;-69
2022/06/20 03:38:46;;;;;;;7.72;2.72;;;;;;;;;;5000435;28;20658;-69
2022/06/20 03:41:15;;;;;;;8.50;2.75;;;;;;;;;;5000195;28;20186;-69
2022/06/20 03:43:44;;;;;;;9.10;3.05;;;;;;;;;;4999185;28;20398;-70
2022/06/20 03:46:17;;;;;;;9.27;3.47;;;;;;;;;;4997363;28;20241;-69
2022/06/20 03:48:55;;;;;;;7.82;2.70;;;;;;;;;;4981368;28;20191;-70
2022/06/20 03:51:24;;;;;;;8.63;2.47;;;;;;;;;;5000886;28;20267;-69
2022/06/20 03:54:10;;;;;;;9.55;2.80;;;;;;;;;;4998520;28;20199;-69
2022/06/20 03:56:48;;;;;;;5.35;2.25;;;;;;;;;;5000360;28;20523;-69
2022/06/20 03:59:28;;;;;;;10.80;2.75;;;;;;;;;;4998207;28;20259;-69
2022/06/20 04:01:59;;;;;;;9.63;2.65;;;;;;;;;;4998864;28;20190;-68
2022/06/20 04:04:52;;;;;;;10.43;3.13;;;;;;;;;;5000584;28;20274;-69
2022/06/20 04:07:27;;;;;;;9.18;2.65;;;;;;;;;;5013406;28;20216;-67
2022/06/20 04:13:12;;;;;;;7.30;3.20;;;;;;;;;;4999961;28;20201;-68
2022/06/20 04:16:18;;;;;;;7.68;2.95;;;;;;;;;;5000050;28;20191;-69
2022/06/20 04:19:06;;;;;;;11.98;2.90;;;;;;;;;;4997209;28;20198;-69
2022/06/20 04:21:44;;;;;;;11.57;3.00;;;;;;;;;;5000822;28;20205;-70
2022/06/20 04:24:33;;;;;;;8.90;2.92;;;;;;;;;;5001692;28;20427;-68
2022/06/20 04:27:04;;;;;;;9.13;3.13;;;;;;;;;;4997989;28;20241;-68
2022/06/20 04:29:36;;;;;;;16.10;3.50;;;;;;;;;;4998666;28;20564;-68
2022/06/20 04:32:04;;;;;;;9.85;3.25;;;;;;;;;;4999762;28;20206;-68
2022/06/20 04:34:40;;;;;;;8.85;3.40;;;;;;;;;;4999023;28;20239;-69
2022/06/20 04:37:29;;;;;;;9.40;3.00;;;;;;;;;;4998544;28;20577;-68
2022/06/20 04:40:04;;;;;;;7.93;2.97;;;;;;;;;;4998999;28;20194;-68
2022/06/20 04:42:53;;;;;;;9.65;2.72;;;;;;;;;;4999399;28;20244;-70
2022/06/20 04:45:28;;;;;;;9.02;2.80;;;;;;;;;;4997799;28;20202;-67
2022/06/20 04:48:07;;;;;;;8.45;2.70;;;;;;;;;;4995523;28;20532;-68
2022/06/20 04:50:34;;;;;;;6.80;2.35;;;;;;;;;;4999211;28;20217;-70
2022/06/20 04:53:08;;;;;;;6.97;2.70;;;;;;;;;;4998509;28;20647;-66
2022/06/20 04:55:38;;;;;;;8.73;2.60;;;;;;;;;;4997029;28;20187;-69
2022/06/20 04:58:06;;;;;;;8.45;2.78;;;;;;;;;;4999452;28;20191;-68
2022/06/20 05:00:38;;;;;;;8.15;2.55;;;;;;;;;;4997064;28;20197;-68
2022/06/20 05:03:07;;;;;;;8.18;2.28;;;;;;;;;;4996920;28;20329;-68
2022/06/20 05:05:39;;;;;;;9.02;2.30;;;;;;;;;;4998009;28;20575;-68
2022/06/20 05:08:07;;;;;;;8.18;1.92;;;;;;;;;;4996834;28;20179;-68
2022/06/20 05:10:42;;;;;;;6.72;1.92;;;;;;;;;;4995842;28;20237;-69
2022/06/20 05:13:15;;;;;;;6.22;1.95;;;;;;;;;;5000721;28;20268;-69
2022/06/20 05:15:42;;;;;;;7.25;2.00;;;;;;;;;;5006880;28;20181;-70
2022/06/20 05:18:34;;;;;;;6.75;1.83;;;;;;;;;;5006037;28;20254;-69
2022/06/20 05:21:32;;;;;;;7.40;1.70;;;;;;;;;;4997537;28;20498;-69
2022/06/20 05:24:02;;;;;;;10.13;2.20;;;;;;;;;;4995565;28;20183;-71
2022/06/20 05:26:32;;;;;;;7.57;2.63;;;;;;;;;;4996931;28;20227;-69
2022/06/20 05:29:02;;;;;;;4.40;1.73;;;;;;;;;;4997390;28;20194;-69
2022/06/20 05:31:39;;;;;;;7.63;1.67;;;;;;;;;;4997395;28;20210;-72
2022/06/20 05:34:20;;;;;;;5.95;1.90;;;;;;;;;;4996434;28;20288;-70
2022/06/20 05:37:03;;;;;;;9.00;1.50;;;;;;;;;;5003352;28;20712;-68
2022/06/20 05:39:35;;;;;;;5.22;1.80;;;;;;;;;;5005878;28;20670;-70
2022/06/20 05:42:01;;;;;;;7.30;2.00;;;;;;;;;;5025022;28;21196;-70
2022/06/20 05:44:27;;;;;;;9.48;1.67;;;;;;;;;;5010717;28;20622;-70
2022/06/20 05:47:00;;;;;;;5.93;1.63;;;;;;;;;;4993239;28;20627;-71
2022/06/20 05:49:30;;;;;;;9.35;2.00;;;;;;;;;;5011210;28;20532;-69
2022/06/20 05:51:58;;;;;;;7.65;1.98;;;;;;;;;;4997897;28;20190;-70
2022/06/20 05:54:27;;;;;;;7.25;1.35;;;;;;;;;;4998875;28;20649;-68
2022/06/20 05:57:02;;;;;;;6.47;1.50;;;;;;;;;;5000867;28;20706;-71
2022/06/20 05:59:27;;;;;;;6.55;1.48;;;;;;;;;;4999083;28;20666;-71
2022/06/20 06:02:09;;;;;;;6.45;1.52;;;;;;;;;;4997227;28;20210;-68
2022/06/20 06:04:41;;;;;;;7.80;2.00;;;;;;;;;;4996671;28;20480;-66
2022/06/20 06:07:13;;;;;;;6.45;1.60;;;;;;;;;;4999448;28;20863;-69
2022/06/20 06:09:52;;;;;;;7.93;1.92;;;;;;;;;;4995756;28;20655;-70
2022/06/20 06:12:30;;;;;;;11.02;2.10;;;;;;;;;;4997334;28;20713;-71
2022/06/20 06:15:04;;;;;;;5.40;1.58;;;;;;;;;;5000034;28;20233;-72
2022/06/20 06:17:53;;;;;;;5.70;1.60;;;;;;;;;;4998824;28;20482;-71
2022/06/20 06:20:24;;;;;;;6.00;1.73;;;;;;;;;;5000497;28;20218;-65
2022/06/20 06:22:56;;;;;;;5.45;1.85;;;;;;;;;;4999045;28;20194;-70
2022/06/20 06:25:37;;;;;;;5.00;1.60;;;;;;;;;;4996977;28;20285;-72
2022/06/20 06:28:06;;;;;;;5.22;1.45;;;;;;;;;;4995217;28;20715;-68
2022/06/20 06:30:38;;;;;;;9.18;2.00;;;;;;;;;;4998651;28;20202;-72
2022/06/20 06:33:20;;;;;;;7.20;1.73;;;;;;;;;;4999929;28;20183;-71
2022/06/20 06:35:56;;;;;;;7.88;1.85;;;;;;;;;;4999404;28;20532;-65
2022/06/20 06:38:28;;;;;;;10.40;1.92;;;;;;;;;;5000246;28;20194;-69
2022/06/20 06:40:56;;;;;;;5.55;1.85;;;;;;;;;;5001317;28;20261;-68
2022/06/20 06:43:37;;;;;;;9.38;1.73;;;;;;;;;;4999875;28;20858;-70
2022/06/20 06:46:04;;;;;;;6.22;1.88;;;;;;;;;;5001223;28;20573;-71
2022/06/20 06:48:45;;;;;;;11.02;2.05;;;;;;;;;;5001345;28;20237;-70
2022/06/20 06:51:43;;;;;;;9.35;1.88;;;;;;;;;;5002151;28;20534;-68
2022/06/20 06:54:20;;;;;;;4.90;1.77;;;;;;;;;;4999701;28;20689;-71
2022/06/20 06:56:57;;;;;;;11.70;2.45;;;;;;;;;;5001233;28;20182;-71
2022/06/20 06:59:32;;;;;;;9.27;1.70;;;;;;;;;;5001348;28;20214;-71
2022/06/20 07:02:02;;;;;;;8.57;1.90;;;;;;;;;;5000975;28;20174;-70
2022/06/20 07:04:34;;;;;;;7.35;1.88;;;;;;;;;;5000735;28;20170;-71
2022/06/20 07:07:19;;;;;;;4.35;2.03;;;;;;;;;;5000273;28;20672;-70
2022/06/20 07:09:50;;;;;;;4.95;1.63;;;;;;;;;;4999376;28;20182;-70
2022/06/20 07:12:25;;;;;;;12.30;2.65;;;;;;;;;;4999883;28;20381;-70
2022/06/20 07:15:20;;;;;;;10.98;1.95;;;;;;;;;;4998978;28;20217;-67
2022/06/20 07:17:52;;;;;;;8.52;2.03;;;;;;;;;;4997959;28;20199;-66
2022/06/20 07:20:22;;;;;;;6.03;1.80;;;;;;;;;;5000810;28;20197;-66
2022/06/20 07:22:48;;;;;;;4.18;2.28;;;;;;;;;;4998961;28;20186;-70
2022/06/20 07:25:25;;;;;;;5.43;1.67;;;;;;;;;;4998948;28;20742;-71
2022/06/20 07:28:03;;;;;;;10.07;1.88;;;;;;;;;;5016095;28;20233;-66
2022/06/20 07:30:37;;;;;;;6.43;2.03;;;;;;;;;;5001009;28;20582;-70
2022/06/20 07:33:11;;;;;;;5.63;2.10;;;;;;;;;;5002434;28;20690;-72
2022/06/20 07:35:42;;;;;;;4.70;2.28;;;;;;;;;;4999418;28;20179;-71
2022/06/20 07:38:14;;;;;;;5.45;2.00;;;;;;;;;;5001731;28;20673;-71
2022/06/20 07:40:47;;;;;;;4.93;1.80;;;;;;;;;;4999180;28;20553;-70
2022/06/20 07:43:22;;;;;;;6.72;2.03;;;;;;;;;;4999095;28;20225;-72
2022/06/20 07:45:50;;;;;;;6.85;2.00;;;;;;;;;;5000115;28;20533;-66
2022/06/20 07:48:26;;;;;;;7.63;2.63;;;;;;;;;;5000283;28;20562;-72
2022/06/20 07:50:52;;;;;;;8.13;3.05;;;;;;;;;;4998103;28;20210;-69
2022/06/20 07:53:23;;;;;;;5.60;1.98;;;;;;;;;;5001295;28;20705;-71
2022/06/20 07:55:59;;;;;;;5.07;1.90;;;;;;;;;;5001203;28;20717;-71
2022/06/20 07:58:28;;;;;;;11.13;2.08;;;;;;;;;;5014421;28;20320;-72
2022/06/20 08:00:55;;;;;;;6.30;2.30;;;;;;;;;;4998657;28;20233;-70
2022/06/20 08:03:39;;;;;;;6.85;2.25;;;;;;;;;;5012070;28;20193;-69
2022/06/20 08:06:20;;;;;;;8.88;2.38;;;;;;;;;;4999241;28;20647;-72
2022/06/20 08:09:22;;;;;;;14.90;3.00;;;;;;;;;;5000535;28;20332;-72
2022/06/20 08:11:55;;;;;;;6.85;2.08;;;;;;;;;;4994675;28;20242;-66
2022/06/20 08:14:33;;;;;;;8.23;2.45;;;;;;;;;;4999449;28;20187;-73
2022/06/20 08:17:03;;;;;;;5.95;2.30;;;;;;;;;;5000022;28;20197;-66
2022/06/20 08:19:29;;;;;;;4.57;1.80;;;;;;;;;;4998798;28;20597;-72
2022/06/20 08:22:04;;;;;;;5.53;1.80;;;;;;;;;;4999054;28;20631;-72
2022/06/20 08:24:51;;;;;;;6.65;2.35;;;;;;;;;;4999491;28;20190;-71
2022/06/20 08:27:25;;;;;;;4.80;1.88;;;;;;;;;;5001195;28;20594;-73
2022/06/20 08:30:01;;;;;;;8.15;2.58;;;;;;;;;;4997008;28;20222;-68
2022/06/20 08:32:29;;;;;;;8.98;2.45;;;;;;;;;;4998993;28;20268;-67
2022/06/20 08:35:19;;;;;;;12.93;3.55;;;;;;;;;;4999075;28;20178;-65
2022/06/20 08:37:51;;;;;;;8.65;2.55;;;;;;;;;;4998032;28;20766;-67
2022/06/20 08:40:33;;;;;;;7.35;2.15;;;;;;;;;;4998564;28;20233;-73
2022/06/20 08:43:20;;;;;;;11.43;3.25;;;;;;;;;;4998993;28;20196;-72
2022/06/20 08:45:53;;;;;;;9.95;2.10;;;;;;;;;;4997447;28;20209;-73
2022/06/20 08:48:44;;;;;;;10.23;2.13;;;;;;;;;;4999871;28;20252;-69
2022/06/20 08:51:39;;;;;;;8.30;2.78;;;;;;;;;;5013675;28;20305;-66
2022/06/20 08:54:25;;;;;;;6.03;2.15;;;;;;;;;;5000047;28;20178;-69
2022/06/20 08:57:28;;;;;;;7.70;1.83;;;;;;;;;;4999341;28;20487;-69
2022/06/20 09:00:09;;;;;;;7.97;2.00;;;;;;;;;;4996106;28;20194;-67
2022/06/20 09:02:53;;;;;;;7.63;1.98;;;;;;;;;;4998198;28;20193;-72
2022/06/20 09:05:43;;;;;;;3.00;1.70;;;;;;;;;;4998957;28;20187;-73
2022/06/20 09:08:31;;;;;;;4.88;1.77;;;;;;;;;;5000163;28;20179;-71
2022/06/20 09:11:15;;;;;;;10.35;2.30;;;;;;;;;;4998254;28;20260;-66
2022/06/20 09:13:48;;;;;;;3.45;1.55;;;;;;;;;;5013763;28;20596;-72
2022/06/20 09:16:49;;;;;;;4.93;1.58;;;;;;;;;;5013231;28;20370;-71
2022/06/20 09:19:28;;;;;;;5.32;1.85;;;;;;;;;;4918523;29;20197;-71
2022/06/20 09:22:24;;;;;;;5.82;2.10;;;;;;;;;;4989568;28;20202;-71
2022/06/20 09:25:13;;;;;;;4.05;1.38;;;;;;;;;;4996976;28;20226;-70
2022/06/20 09:28:06;;;;;;;6.80;1.33;;;;;;;;;;4996448;28;20580;-71
2022/06/20 09:31:09;;;;;;;6.07;1.45;;;;;;;;;;4996569;28;20696;-67
2022/06/20 09:34:19;;;;;;;5.75;1.80;;;;;;;;;;4997892;28;20214;-71
2022/06/20 09:36:54;;;;;;;7.68;1.80;;;;;;;;;;4972742;28;20202;-70
2022/06/20 09:39:34;;;;;;;7.43;1.75;;;;;;;;;;4997108;28;20240;-70
2022/06/20 09:42:30;;;;;;;5.07;1.58;;;;;;;;;;4997627;28;20591;-65
2022/06/20 09:45:09;;;;;;;5.85;1.45;;;;;;;;;;4999074;28;20212;-72
2022/06/20 09:48:10;;;;;;;2.80;1.35;;;;;;;;;;4998760;28;20591;-70
2022/06/20 09:50:43;;;;;;;6.07;1.55;;;;;;;;;;5001237;28;20201;-69
2022/06/20 09:53:38;;;;;;;3.65;1.30;;;;;;;;;;5003763;28;20280;-72
2022/06/20 09:56:13;;;;;;;5.03;1.27;;;;;;;;;;5001305;28;20266;-73
2022/06/20 09:59:07;;;;;;;4.47;1.42;;;;;;;;;;5000859;28;20193;-68
2022/06/20 10:02:00;;;;;;;7.22;1.55;;;;;;;;;;5016245;28;20189;-68
2022/06/20 10:04:43;;;;;;;5.72;1.38;;;;;;;;;;5001752;28;20203;-73
2022/06/20 10:07:23;;;;;;;3.75;1.20;;;;;;;;;;5002778;28;20187;-67
2022/06/20 10:10:03;;;;;;;2.42;1.17;;;;;;;;;;5017113;28;20619;-74
2022/06/20 10:12:36;;;;;;;5.68;1.38;;;;;;;;;;5002903;28;20193;-73
2022/06/20 10:15:14;;;;;;;2.97;1.08;;;;;;;;;;5003351;28;20187;-73
2022/06/20 10:18:10;;;;;;;4.18;1.48;;;;;;;;;;5000783;28;20569;-74
2022/06/20 10:20:56;;;;;;;7.45;1.48;;;;;;;;;;5002685;28;20575;-67
2022/06/20 10:23:43;;;;;;;3.35;1.08;;;;;;;;;;5002300;28;20194;-69
2022/06/20 10:26:15;;;;;;;4.85;1.40;;;;;;;;;;5002401;28;20182;-71
2022/06/20 10:29:00;;;;;;;4.95;1.60;;;;;;;;;;4997196;28;20200;-67
2022/06/20 10:31:41;;;;;;;3.53;1.35;;;;;;;;;;5014582;28;20242;-67
2022/06/20 10:34:10;;;;;;;3.58;1.40;;;;;;;;;;5002024;28;20735;-72
2022/06/20 10:36:50;;;;;;;4.68;1.25;;;;;;;;;;5000477;28;20186;-69
2022/06/20 10:39:54;;;;;;;2.92;1.40;;;;;;;;;;5001676;28;20182;-72
2022/06/20 10:42:30;;;;;;;5.65;1.20;;;;;;;;;;5000027;28;20190;-72
2022/06/20 10:45:21;;;;;;;3.00;1.40;;;;;;;;;;5001454;28;20201;-67
2022/06/20 10:48:13;;;;;;;3.22;1.08;;;;;;;;;;5001252;28;20187;-71
2022/06/20 10:50:45;;;;;;;3.75;1.00;;;;;;;;;;5013614;28;20207;-72
2022/06/20 10:53:47;;;;;;;3.83;1.25;;;;;;;;;;5000098;28;20222;-70
2022/06/20 10:56:30;;;;;;;3.70;1.23;;;;;;;;;;5016157;28;20198;-71
2022/06/20 10:59:11;;;;;;;2.95;0.90;;;;;;;;;;4998435;28;20214;-68
2022/06/20 11:02:14;;;;;;;4.75;1.20;;;;;;;;;;4999918;28;20174;-71
2022/06/20 11:04:55;;;;;;;6.80;1.75;;;;;;;;;;5000825;28;20206;-74
2022/06/20 11:07:32;;;;;;;2.38;1.05;;;;;;;;;;4998135;28;20733;-70
2022/06/20 11:10:29;;;;;;;2.60;1.10;;;;;;;;;;4981529;28;20261;-72
2022/06/20 11:13:06;;;;;;;5.03;1.15;;;;;;;;;;4999924;28;20198;-70
2022/06/20 11:15:53;;;;;;;3.40;1.13;;;;;;;;;;5000565;28;20183;-69
2022/06/20 11:18:38;;;;;;;4.32;1.08;;;;;;;;;;5001122;28;20189;-66
2022/06/20 11:21:30;;;;;;;2.97;1.08;;;;;;;;;;5000179;28;20185;-68
2022/06/20 11:24:10;;;;;;;5.72;1.30;;;;;;;;;;4999701;28;20186;-73
2022/06/20 11:26:44;;;;;;;3.70;1.55;;;;;;;;;;4999756;28;20241;-70
2022/06/20 11:29:22;;;;;;;2.83;1.15;;;;;;;;;;5000891;28;20214;-68
2022/06/20 11:31:59;;;;;;;2.70;1.13;;;;;;;;;;4999369;28;20316;-72
2022/06/20 11:35:07;;;;;;;5.03;1.30;;;;;;;;;;5003979;28;20206;-70
2022/06/20 11:38:05;;;;;;;3.70;1.27;;;;;;;;;;4999162;28;20631;-68
2022/06/20 11:40:43;;;;;;;4.57;1.35;;;;;;;;;;4987975;28;20199;-68
2022/06/20 11:43:52;;;;;;;4.18;1.08;;;;;;;;;;5002678;28;20550;-67
2022/06/20 11:47:08;;;;;;;3.65;1.27;;;;;;;;;;5002021;28;20266;-71
2022/06/20 11:50:14;;;;;;;4.15;1.48;;;;;;;;;;4929717;29;20626;-73
2022/06/20 11:53:05;;;;;;;5.65;1.33;;;;;;;;;;4999981;28;20202;-73
2022/06/20 11:55:50;;;;;;;7.78;1.45;;;;;;;;;;5001869;28;20621;-71
2022/06/20 11:58:25;;;;;;;3.38;1.38;;;;;;;;;;4999462;28;20194;-68
2022/06/20 12:01:01;;;;;;;2.70;1.30;;;;;;;;;;4999977;28;20179;-72
2022/06/20 12:03:52;;;;;;;4.78;1.60;;;;;;;;;;4999892;28;20220;-72
2022/06/20 12:06:25;;;;;;;5.82;1.15;;;;;;;;;;5015255;28;20262;-70
2022/06/20 12:09:04;;;;;;;4.93;1.30;;;;;;;;;;4997321;28;20178;-68
2022/06/20 12:11:30;;;;;;;5.03;1.00;;;;;;;;;;4999477;28;20301;-71
2022/06/20 12:14:16;;;;;;;3.67;1.30;;;;;;;;;;5000133;28;20669;-72
2022/06/20 12:17:23;;;;;;;3.10;1.15;;;;;;;;;;4997078;28;20194;-70
2022/06/20 12:25:44;;;;;;;4.47;1.67;;;;;;;;;;4999745;28;20677;-71
2022/06/20 12:28:36;;;;;;;6.63;1.45;;;;;;;;;;4998595;28;20239;-69
2022/06/20 12:31:07;;;;;;;5.78;1.45;;;;;;;;;;5001964;28;20259;-72
2022/06/20 12:33:36;;;;;;;4.97;0.90;;;;;;;;;;5001828;28;20546;-70
2022/06/20 12:36:11;;;;;;;4.95;1.48;;;;;;;;;;5000073;28;20458;-71
2022/06/20 12:38:50;;;;;;;5.13;1.50;;;;;;;;;;4998647;28;21748;-71
2022/06/20 12:41:19;;;;;;;8.90;1.70;;;;;;;;;;4999507;28;20882;-70
2022/06/20 12:44:11;;;;;;;6.50;1.60;;;;;;;;;;4999131;28;20217;-69
2022/06/20 12:46:43;;;;;;;3.08;1.35;;;;;;;;;;4995326;28;20673;-71
2022/06/20 12:49:24;;;;;;;2.63;1.55;;;;;;;;;;4998884;28;20195;-72
2022/06/20 12:51:58;;;;;;;5.25;1.65;;;;;;;;;;5014393;28;20438;-71
2022/06/20 12:54:39;;;;;;;2.88;1.35;;;;;;;;;;4997673;28;20264;-66
2022/06/20 12:57:42;;;;;;;6.65;1.75;;;;;;;;;;4995787;28;20193;-69
2022/06/20 13:00:10;;;;;;;5.35;1.50;;;;;;;;;;4989199;28;20194;-66
2022/06/20 13:03:15;;;;;;;5.60;1.42;;;;;;;;;;4996956;28;21445;-72
2022/06/20 13:05:57;;;;;;;6.20;1.40;;;;;;;;;;4996597;28;20558;-71
2022/06/20 13:08:30;;;;;;;3.92;1.17;;;;;;;;;;5011179;28;20213;-72
2022/06/20 13:11:20;;;;;;;3.22;1.10;;;;;;;;;;5000457;28;20237;-66
2022/06/20 13:14:13;;;;;;;3.53;1.30;;;;;;;;;;5000697;28;20201;-69
2022/06/20 13:17:06;;;;;;;5.80;1.58;;;;;;;;;;4997455;28;20179;-72
2022/06/20 13:19:37;;;;;;;4.63;1.50;;;;;;;;;;4996564;28;20190;-69
2022/06/20 13:22:16;;;;;;;8.52;1.92;;;;;;;;;;5011592;28;20210;-71
2022/06/20 13:24:48;;;;;;;5.47;1.80;;;;;;;;;;5000278;28;20549;-67
2022/06/20 13:27:34;;;;;;;4.47;1.27;;;;;;;;;;5001327;28;20281;-66
2022/06/20 13:30:20;;;;;;;7.15;1.67;;;;;;;;;;5001720;28;20194;-71
2022/06/20 13:33:10;;;;;;;3.88;1.27;;;;;;;;;;5001695;28;20971;-71
2022/06/20 13:36:00;;;;;;;6.70;1.50;;;;;;;;;;5001395;28;20608;-71
2022/06/20 13:38:36;;;;;;;4.65;1.30;;;;;;;;;;4997545;28;20271;-71
2022/06/20 13:41:23;;;;;;;4.57;1.35;;;;;;;;;;5002439;28;20241;-69
2022/06/20 13:44:00;;;;;;;4.65;1.27;;;;;;;;;;5000784;28;20187;-67
2022/06/20 13:46:43;;;;;;;6.78;1.50;;;;;;;;;;4999392;28;20191;-70
2022/06/20 13:49:35;;;;;;;7.38;1.55;;;;;;;;;;5001390;28;20804;-67
2022/06/20 13:52:19;;;;;;;3.80;1.42;;;;;;;;;;5000122;28;20204;-72
2022/06/20 13:54:51;;;;;;;5.78;1.27;;;;;;;;;;5000354;28;20183;-65
2022/06/20 13:57:23;;;;;;;4.45;1.15;;;;;;;;;;5002169;28;20198;-72
2022/06/20 14:00:20;;;;;;;4.82;1.17;;;;;;;;;;5014725;28;20265;-68
2022/06/20 14:03:08;;;;;;;5.43;1.25;;;;;;;;;;4998088;28;20202;-71
2022/06/20 14:05:36;;;;;;;4.85;1.20;;;;;;;;;;5001450;28;20187;-72
2022/06/20 14:08:27;;;;;;;3.03;1.20;;;;;;;;;;4999827;28;20874;-72
2022/06/20 14:11:02;;;;;;;1.50;1.00;;;;;;;;;;4992897;28;20319;-72
2022/06/20 14:13:44;;;;;;;2.78;1.48;;;;;;;;;;4999688;28;20185;-67
2022/06/20 14:16:23;;;;;;;5.25;1.00;;;;;;;;;;5000888;28;20222;-71
2022/06/20 14:19:14;;;;;;;6.32;1.30;;;;;;;;;;5000716;28;21362;-69
2022/06/20 14:21:45;;;;;;;4.65;1.25;;;;;;;;;;5000742;28;20568;-65
2022/06/20 14:24:24;;;;;;;2.35;0.77;;;;;;;;;;5001497;28;20639;-70
2022/06/20 14:27:03;;;;;;;2.95;0.93;;;;;;;;;;5000489;28;20916;-71
2022/06/20 14:29:34;;;;;;;4.43;1.10;;;;;;;;;;4999855;28;20256;-71
2022/06/20 14:32:08;;;;;;;4.50;1.45;;;;;;;;;;5002133;28;20599;-65
2022/06/20 14:37:51;;;;;;;4.78;1.40;;;;;;;;;;5001386;28;20280;-66
2022/06/20 14:40:31;;;;;;;4.18;1.30;;;;;;;;;;5001313;28;20816;-67
2022/06/20 14:43:20;;;;;;;3.00;1.10;;;;;;;;;;4999444;28;20657;-70
2022/06/20 14:46:05;;;;;;;3.35;1.10;;;;;;;;;;4999913;28;20174;-70
2022/06/20 14:48:46;;;;;;;3.70;1.40;;;;;;;;;;4998317;28;20269;-71
2022/06/20 14:51:22;;;;;;;2.83;1.30;;;;;;;;;;4998894;28;20666;-70
2022/06/20 14:54:11;;;;;;;2.50;1.10;;;;;;;;;;5000462;28;20186;-71
2022/06/20 14:56:44;;;;;;;3.90;1.17;;;;;;;;;;4999284;28;20175;-66
2022/06/20 14:59:25;;;;;;;3.78;1.30;;;;;;;;;;4998488;28;20194;-67
2022/06/20 15:02:11;;;;;;;3.10;1.40;;;;;;;;;;4997481;28;20179;-66
2022/06/20 15:04:57;;;;;;;3.88;1.40;;;;;;;;;;4994505;28;20269;-72
2022/06/20 15:07:40;;;;;;;2.97;1.20;;;;;;;;;;4997360;28;20740;-68
2022/06/20 15:10:09;;;;;;;4.63;1.30;;;;;;;;;;4999587;28;20285;-70
2022/06/20 15:12:48;;;;;;;2.85;1.10;;;;;;;;;;4997904;28;20741;-72
2022/06/20 15:15:47;;;;;;;5.60;1.30;;;;;;;;;;5000191;28;20321;-69
2022/06/20 15:18:33;;;;;;;5.80;1.10;;;;;;;;;;4977037;28;20766;-70
2022/06/20 15:21:34;;;;;;;3.13;1.40;;;;;;;;;;4997792;28;20522;-71
2022/06/20 15:24:14;;;;;;;2.60;1.10;;;;;;;;;;4997723;28;20190;-66
2022/06/20 15:26:41;;;;;;;9.43;1.70;;;;;;;;;;4997874;28;20241;-68
2022/06/20 15:29:19;;;;;;;1.50;1.00;;;;;;;;;;4996997;28;20182;-68
2022/06/20 15:32:01;;;;;;;4.50;1.20;;;;;;;;;;4996745;28;20222;-66
2022/06/20 15:34:35;;;;;;;4.60;1.17;;;;;;;;;;5010841;28;20186;-71
2022/06/20 15:37:14;;;;;;;4.20;1.20;;;;;;;;;;4998113;28;20901;-71
2022/06/20 15:39:49;;;;;;;4.97;1.08;;;;;;;;;;4997304;28;20657;-70
2022/06/20 15:44:53;;;;;;;1.75;1.30;;;;;;;;;;4996992;28;20439;-70
2022/06/20 15:47:30;;;;;;;5.38;1.50;;;;;;;;;;4996304;28;20548;-70
2022/06/20 15:50:02;;;;;;;4.65;1.33;;;;;;;;;;4997717;28;20233;-70
2022/06/20 15:52:33;;;;;;;4.38;1.08;;;;;;;;;;4999051;28;20187;-69
2022/06/20 15:55:28;;;;;;;2.85;1.20;;;;;;;;;;4998908;28;20940;-71
2022/06/20 15:58:00;;;;;;;4.07;1.27;;;;;;;;;;4999186;28;20435;-66
2022/06/20 16:00:44;;;;;;;3.13;1.20;;;;;;;;;;5002507;28;20646;-72
2022/06/20 16:03:28;;;;;;;4.07;1.00;;;;;;;;;;5000110;28;20608;-68